createdAt,value
2018-04-16T13:16:45.636Z,11060.00
2018-04-16T13:17:45.518Z,12860.00
2018-04-16T13:18:45.432Z,11000.00
2018-04-16T13:19:45.360Z,13352.00
2018-04-16T13:20:45.276Z,9424.00
2018-04-16T13:21:45.199Z,9600.00
2018-04-16T13:22:45.123Z,12384.00
2018-04-16T13:23:45.050Z,14804.00
2018-04-16T13:24:44.981Z,14856.00
2018-04-16T13:25:44.902Z,13832.00
2018-04-16T13:26:44.828Z,17984.00
2018-04-16T13:27:44.755Z,31872.00
2018-04-16T13:28:44.684Z,29920.00
2018-04-16T13:29:44.614Z,50176.00
2018-04-16T13:30:44.535Z,54880.00
2018-04-16T13:31:44.466Z,58912.00
2018-04-16T13:32:44.397Z,41504.00
2018-04-16T13:33:44.325Z,33152.00
2018-04-16T13:34:44.269Z,15712.00
2018-04-16T13:35:44.190Z,17792.00
2018-04-16T13:36:44.117Z,11624.00
2018-04-16T13:37:44.048Z,13228.00
2018-04-16T13:38:43.986Z,11832.00
2018-04-16T13:39:43.915Z,12788.00
2018-04-16T13:40:43.844Z,11112.00
2018-04-16T13:41:43.778Z,11132.00
2018-04-16T13:42:43.709Z,13988.00
2018-04-16T13:43:43.640Z,11600.00
2018-04-16T13:44:43.571Z,11236.00
2018-04-16T13:45:43.520Z,10316.00
2018-04-16T13:46:43.439Z,10104.00
2018-04-16T13:47:43.368Z,9428.00
2018-04-16T13:48:43.301Z,8920.00
2018-04-16T13:49:43.233Z,7908.00
2018-04-16T13:50:43.161Z,7212.00
2018-04-16T13:51:43.105Z,6632.00
2018-04-16T13:52:43.048Z,6156.00
2018-04-16T13:53:42.975Z,5784.00
2018-04-16T13:54:42.890Z,5612.00
2018-04-16T13:55:42.825Z,5804.00
2018-04-16T13:56:42.769Z,5676.00
2018-04-16T13:57:42.697Z,5776.00
2018-04-16T13:58:42.616Z,5856.00
2018-04-16T13:59:42.548Z,6132.00
2018-04-16T14:00:42.477Z,6344.00
2018-04-16T14:01:42.410Z,6416.00
2018-04-16T14:02:42.339Z,6272.00
2018-04-16T14:03:42.272Z,6204.00
2018-04-16T14:04:42.207Z,6188.00
2018-04-16T14:05:42.132Z,6448.00
2018-04-16T14:06:42.064Z,6908.00
2018-04-16T14:07:42.005Z,7476.00
2018-04-16T14:08:41.925Z,7960.00
2018-04-16T14:09:41.854Z,8248.00
2018-04-16T14:10:41.791Z,9212.00
2018-04-16T14:11:41.727Z,10580.00
2018-04-16T14:12:41.696Z,13016.00
2018-04-16T14:13:41.576Z,19936.00
2018-04-16T14:14:41.510Z,25888.00
2018-04-16T14:15:41.436Z,27968.00
2018-04-16T14:16:41.367Z,23264.00
2018-04-16T14:17:41.298Z,15232.00
2018-04-16T14:18:41.228Z,6704.00
2018-04-16T14:19:41.180Z,4980.00
2018-04-16T14:20:41.089Z,4048.00
2018-04-16T14:21:41.023Z,3448.00
2018-04-16T14:22:40.951Z,3152.00
2018-04-16T14:23:40.879Z,2996.00
2018-04-16T14:24:40.812Z,3080.00
2018-04-16T14:25:40.741Z,3276.00
2018-04-16T14:26:40.672Z,3668.00
2018-04-16T14:27:40.605Z,4492.00
2018-04-16T14:28:40.538Z,4704.00
2018-04-16T14:29:40.463Z,5876.00
2018-04-16T14:30:40.396Z,11256.00
2018-04-16T14:31:40.326Z,30240.00
2018-04-16T14:32:40.255Z,30432.00
2018-04-16T14:33:40.186Z,19616.00
2018-04-16T14:34:40.117Z,9756.00
2018-04-16T14:35:40.050Z,10740.00
2018-04-16T14:36:39.981Z,20960.00
2018-04-16T14:37:39.912Z,23520.00
2018-04-16T14:38:39.866Z,26560.00
2018-04-16T14:39:39.772Z,16288.00
2018-04-16T14:40:39.703Z,17248.00
2018-04-16T14:41:39.635Z,19392.00
2018-04-16T14:42:39.590Z,15392.00
2018-04-16T14:43:39.505Z,11312.00
2018-04-16T14:44:39.439Z,9936.00
2018-04-16T14:45:39.377Z,9036.00
2018-04-16T14:46:39.303Z,9264.00
2018-04-16T14:47:39.231Z,6472.00
2018-04-16T14:48:39.167Z,14672.00
2018-04-16T14:49:39.093Z,13412.00
2018-04-16T14:50:39.042Z,10780.00
2018-04-16T14:51:38.961Z,19328.00
2018-04-16T14:52:38.891Z,6796.00
2018-04-16T14:53:38.851Z,5424.00
2018-04-16T14:54:38.769Z,4948.00
2018-04-16T14:55:38.731Z,4628.00
2018-04-16T14:56:38.632Z,4316.00
2018-04-16T14:57:38.558Z,4152.00
2018-04-16T14:58:38.488Z,3588.00
2018-04-16T14:59:38.427Z,3788.00
2018-04-16T15:00:38.371Z,3612.00
2018-04-16T15:01:38.285Z,4380.00
2018-04-16T15:02:38.212Z,5284.00
2018-04-16T15:03:38.143Z,5024.00
2018-04-16T15:04:38.076Z,5104.00
2018-04-16T15:05:38.007Z,5064.00
2018-04-16T15:06:37.941Z,4968.00
2018-04-16T15:07:37.868Z,4956.00
2018-04-16T15:08:37.800Z,4692.00
2018-04-16T15:09:37.730Z,4556.00
2018-04-16T15:10:37.668Z,5172.00
2018-04-16T15:11:37.593Z,7732.00
2018-04-16T15:12:37.528Z,10624.00
2018-04-16T15:13:37.456Z,5568.00
2018-04-16T15:14:37.387Z,5328.00
2018-04-16T15:15:37.316Z,5144.00
2018-04-16T15:16:37.249Z,4928.00
2018-04-16T15:17:37.179Z,4792.00
2018-04-16T15:18:37.134Z,4420.00
2018-04-16T15:19:37.070Z,3868.00
2018-04-16T15:20:36.970Z,3400.00
2018-04-16T15:21:36.901Z,2808.00
2018-04-16T15:22:36.834Z,2324.00
2018-04-16T15:23:36.760Z,1940.00
2018-04-16T15:24:36.722Z,1580.00
2018-04-16T15:25:36.667Z,1252.00
2018-04-16T15:26:36.551Z,968.00
2018-04-16T15:27:36.481Z,764.00
2018-04-16T15:28:36.418Z,632.00
2018-04-16T15:29:36.343Z,508.00
2018-04-16T15:30:36.272Z,416.00
2018-04-16T15:31:36.207Z,344.00
2018-04-16T15:32:36.144Z,292.00
2018-04-16T15:33:36.061Z,260.00
2018-04-16T15:34:35.990Z,252.00
2018-04-16T15:35:35.919Z,252.00
2018-04-16T15:36:35.848Z,244.00
2018-04-16T15:37:35.776Z,220.00
2018-04-16T15:38:35.706Z,196.00
2018-04-16T15:39:35.689Z,172.00
2018-04-16T15:40:35.565Z,160.00
2018-04-16T15:41:35.504Z,144.00
2018-04-16T15:42:35.421Z,140.00
2018-04-16T15:43:35.351Z,144.00
2018-04-16T15:44:35.276Z,156.00
2018-04-16T15:45:35.212Z,172.00
2018-04-16T15:46:35.144Z,192.00
2018-04-16T15:47:35.062Z,208.00
2018-04-16T15:48:34.992Z,240.00
2018-04-16T15:49:34.944Z,272.00
2018-04-16T15:50:34.897Z,292.00
2018-04-16T15:51:34.807Z,312.00
2018-04-16T15:52:34.702Z,332.00
2018-04-16T15:53:34.635Z,344.00
2018-04-16T15:54:34.579Z,360.00
2018-04-16T15:55:34.484Z,376.00
2018-04-16T15:56:34.412Z,404.00
2018-04-16T15:57:34.385Z,436.00
2018-04-16T15:58:34.267Z,480.00
2018-04-16T15:59:34.192Z,524.00
2018-04-16T16:00:34.122Z,568.00
2018-04-16T16:01:34.048Z,612.00
2018-04-16T16:02:33.975Z,660.00
2018-04-16T16:03:33.909Z,716.00
2018-04-16T16:04:33.829Z,772.00
2018-04-16T16:05:33.753Z,824.00
2018-04-16T16:06:33.684Z,876.00
2018-04-16T16:07:33.608Z,924.00
2018-04-16T16:08:33.535Z,972.00
2018-04-16T16:09:33.462Z,1008.00
2018-04-16T16:10:33.386Z,1048.00
2018-04-16T16:11:33.313Z,1092.00
2018-04-16T16:12:33.240Z,1124.00
2018-04-16T16:13:33.165Z,1152.00
2018-04-16T16:14:33.090Z,1188.00
2018-04-16T16:15:33.016Z,1212.00
2018-04-16T16:16:32.943Z,1236.00
2018-04-16T16:17:32.872Z,1268.00
2018-04-16T16:18:32.793Z,1328.00
2018-04-16T16:19:32.719Z,1428.00
2018-04-16T16:20:32.649Z,1548.00
2018-04-16T16:21:32.573Z,1680.00
2018-04-16T16:22:32.498Z,1836.00
2018-04-16T16:23:32.426Z,2020.00
2018-04-16T16:24:32.351Z,2204.00
2018-04-16T16:25:32.280Z,2316.00
2018-04-16T16:26:33.160Z,2400.00
2018-04-16T16:27:32.129Z,2472.00
2018-04-16T16:28:32.055Z,2480.00
2018-04-16T16:29:31.982Z,2400.00
2018-04-16T16:30:31.904Z,2304.00
2018-04-16T16:31:31.837Z,2224.00
2018-04-16T16:32:31.761Z,2188.00
2018-04-16T16:33:31.688Z,2240.00
2018-04-16T16:34:31.670Z,2304.00
2018-04-16T16:35:31.558Z,2312.00
2018-04-16T16:36:31.462Z,2308.00
2018-04-16T16:37:31.390Z,2308.00
2018-04-16T16:38:31.316Z,2300.00
2018-04-16T16:39:31.247Z,2256.00
2018-04-16T16:40:31.169Z,2196.00
2018-04-16T16:41:31.094Z,2136.00
2018-04-16T16:42:31.031Z,2084.00
2018-04-16T16:43:30.946Z,2044.00
2018-04-16T16:44:30.878Z,2008.00
2018-04-16T16:45:30.804Z,1968.00
2018-04-16T16:46:30.761Z,1924.00
2018-04-16T16:47:30.651Z,1888.00
2018-04-16T16:48:30.577Z,1852.00
2018-04-16T16:49:30.505Z,1820.00
2018-04-16T16:50:30.455Z,1796.00
2018-04-16T16:51:30.362Z,1772.00
2018-04-16T16:52:30.289Z,1748.00
2018-04-16T16:53:30.210Z,1728.00
2018-04-16T16:54:30.140Z,1700.00
2018-04-16T16:55:30.060Z,1672.00
2018-04-16T16:56:30.106Z,1652.00
2018-04-16T16:57:29.913Z,1640.00
2018-04-16T16:58:29.845Z,1632.00
2018-04-16T16:59:29.797Z,1624.00
2018-04-16T17:00:29.695Z,1616.00
2018-04-16T17:01:29.622Z,1604.00
2018-04-16T17:02:29.568Z,1584.00
2018-04-16T17:03:29.479Z,1572.00
2018-04-16T17:04:29.396Z,1564.00
2018-04-16T17:05:29.322Z,1552.00
2018-04-16T17:06:29.382Z,1544.00
2018-04-16T17:07:29.172Z,1532.00
2018-04-16T17:08:29.132Z,1520.00
2018-04-16T17:09:29.035Z,1508.00
2018-04-16T17:10:28.954Z,1484.00
2018-04-16T17:11:28.877Z,1460.00
2018-04-16T17:12:28.802Z,1416.00
2018-04-16T17:13:28.764Z,1368.00
2018-04-16T17:14:28.677Z,1324.00
2018-04-16T17:15:28.581Z,1272.00
2018-04-16T17:16:28.506Z,1232.00
2018-04-16T17:17:28.430Z,1200.00
2018-04-16T17:18:28.359Z,1176.00
2018-04-16T17:19:28.304Z,1160.00
2018-04-16T17:20:28.210Z,1136.00
2018-04-16T17:22:28.077Z,1080.00
2018-04-16T17:23:28.024Z,1044.00
2018-04-16T17:24:27.945Z,1004.00
2018-04-16T17:25:27.838Z,968.00
2018-04-16T17:26:27.820Z,936.00
2018-04-16T17:27:27.695Z,904.00
2018-04-16T17:28:27.613Z,876.00
2018-04-16T17:29:27.546Z,852.00
2018-04-16T17:30:27.472Z,820.00
2018-04-16T17:31:27.387Z,800.00
2018-04-16T17:32:27.315Z,776.00
2018-04-16T17:33:27.273Z,752.00
2018-04-16T17:34:27.184Z,728.00
2018-04-16T17:35:27.091Z,704.00
2018-04-16T17:36:27.018Z,680.00
2018-04-16T17:37:26.941Z,664.00
2018-04-16T17:38:26.923Z,640.00
2018-04-16T17:39:26.812Z,616.00
2018-04-16T17:40:26.761Z,592.00
2018-04-16T17:41:26.651Z,572.00
2018-04-16T17:42:26.577Z,548.00
2018-04-16T17:43:26.491Z,524.00
2018-04-16T17:46:09.028Z,452.00
2018-04-16T17:47:08.897Z,424.00
2018-04-16T17:48:08.824Z,392.00
2018-04-16T17:49:08.747Z,356.00
2018-04-16T17:50:08.672Z,324.00
2018-04-16T17:51:08.599Z,296.00
2018-04-16T17:52:08.521Z,268.00
2018-04-16T17:53:08.492Z,248.00
2018-04-16T17:54:08.371Z,232.00
2018-04-16T17:55:08.303Z,224.00
2018-04-16T17:56:08.227Z,208.00
2018-04-16T17:57:08.149Z,192.00
2018-04-16T17:58:08.139Z,176.00
2018-04-16T17:59:08.394Z,160.00
2018-04-16T18:00:07.928Z,148.00
2018-04-16T18:01:08.019Z,136.00
2018-04-16T18:02:07.770Z,120.00
2018-04-16T18:03:07.746Z,112.00
2018-04-16T18:04:07.629Z,96.00
2018-04-16T18:05:07.544Z,88.00
2018-04-16T18:06:07.471Z,80.00
2018-04-16T18:07:07.409Z,76.00
2018-04-16T18:08:07.319Z,68.00
2018-04-16T18:09:07.245Z,60.00
2018-04-16T18:10:07.170Z,52.00
2018-04-16T18:11:07.094Z,48.00
2018-04-16T18:12:07.408Z,40.00
2018-04-16T18:13:06.962Z,36.00
2018-04-16T18:14:06.869Z,32.00
2018-04-16T18:15:06.908Z,28.00
2018-04-16T18:16:06.718Z,24.00
2018-04-16T18:17:06.639Z,20.00
2018-04-16T18:18:06.567Z,20.00
2018-04-16T18:19:06.489Z,16.00
2018-04-16T18:20:06.419Z,16.00
2018-04-16T18:21:06.376Z,12.00
2018-04-16T18:22:06.264Z,12.00
2018-04-16T18:23:06.193Z,8.00
2018-04-16T18:24:06.113Z,8.00
2018-04-16T18:25:06.042Z,8.00
2018-04-16T18:26:05.965Z,4.00
2018-04-16T18:27:05.884Z,4.00
2018-04-16T18:28:05.822Z,4.00
2018-04-16T18:29:05.736Z,4.00
2018-04-16T18:30:05.664Z,0.00
2018-04-16T18:31:05.581Z,4.00
2018-04-16T18:32:05.509Z,0.00
2018-04-16T18:33:05.445Z,0.00
2018-04-16T18:34:05.357Z,4.00
2018-04-16T18:35:05.288Z,4.00
2018-04-16T18:36:05.206Z,0.00
2018-04-16T18:37:05.128Z,0.00
2018-04-16T18:38:05.053Z,0.00
2018-04-16T18:39:05.004Z,0.00
2018-04-16T18:40:04.902Z,0.00
2018-04-16T18:41:04.825Z,0.00
2018-04-16T18:42:04.751Z,0.00
2018-04-16T18:43:04.672Z,0.00
2018-04-16T18:44:04.601Z,0.00
2018-04-16T18:45:04.532Z,0.00
2018-04-16T18:46:06.195Z,0.00
2018-04-16T18:47:04.371Z,0.00
2018-04-16T18:48:04.318Z,0.00
2018-04-16T18:49:04.217Z,0.00
2018-04-16T18:50:04.141Z,0.00
2018-04-16T18:51:04.066Z,0.00
2018-04-16T18:52:03.989Z,0.00
2018-04-16T18:53:03.915Z,0.00
2018-04-16T18:54:03.837Z,0.00
2018-04-16T18:55:03.763Z,0.00
2018-04-16T18:56:03.686Z,0.00
2018-04-16T18:57:03.607Z,0.00
2018-04-16T18:58:03.545Z,0.00
2018-04-16T18:59:03.458Z,0.00
2018-04-16T19:00:03.381Z,0.00
2018-04-16T19:01:03.303Z,0.00
2018-04-16T19:02:03.228Z,0.00
2018-04-16T19:03:03.153Z,0.00
2018-04-16T19:04:03.100Z,0.00
2018-04-16T19:05:03.001Z,0.00
2018-04-16T19:06:02.924Z,0.00
2018-04-16T19:07:02.848Z,0.00
2018-04-16T19:08:02.773Z,0.00
2018-04-16T19:09:02.696Z,0.00
2018-04-16T19:10:02.622Z,0.00
2018-04-16T19:11:02.552Z,0.00
2018-04-16T19:12:02.471Z,0.00
2018-04-16T19:13:02.390Z,0.00
2018-04-16T19:14:02.323Z,0.00
2018-04-16T19:15:02.245Z,0.00
2018-04-16T19:16:02.203Z,0.00
2018-04-16T19:17:02.086Z,0.00
2018-04-16T19:18:02.009Z,0.00
2018-04-16T19:19:01.935Z,0.00
2018-04-16T19:20:01.860Z,0.00
2018-04-16T19:21:01.780Z,0.00
2018-04-16T19:22:01.704Z,0.00
2018-04-16T19:23:01.632Z,0.00
2018-04-16T19:24:01.555Z,0.00
2018-04-16T19:25:01.491Z,0.00
2018-04-16T19:26:01.413Z,0.00
2018-04-16T19:27:01.321Z,0.00
2018-04-16T19:28:01.259Z,0.00
2018-04-16T19:29:01.182Z,0.00
2018-04-16T19:30:01.099Z,0.00
2018-04-16T19:31:01.041Z,0.00
2018-04-16T19:32:00.941Z,0.00
2018-04-16T19:33:00.866Z,0.00
2018-04-16T19:34:00.787Z,0.00
2018-04-16T19:35:00.715Z,0.00
2018-04-16T19:36:00.656Z,0.00
2018-04-16T19:37:00.567Z,0.00
2018-04-16T19:38:00.484Z,0.00
2018-04-16T19:39:00.408Z,0.00
2018-04-16T19:40:00.331Z,0.00
2018-04-16T19:41:00.255Z,0.00
2018-04-16T19:42:00.185Z,0.00
2018-04-16T19:43:00.110Z,0.00
2018-04-16T19:44:00.023Z,0.00
2018-04-16T19:44:59.956Z,0.00
2018-04-16T19:45:59.874Z,0.00
2018-04-16T19:46:59.795Z,0.00
2018-04-16T19:47:59.718Z,0.00
2018-04-16T19:48:59.695Z,0.00
2018-04-16T19:49:59.570Z,0.00
2018-04-16T19:50:59.489Z,0.00
2018-04-16T19:51:59.413Z,0.00
2018-04-16T19:52:59.379Z,0.00
2018-04-16T19:53:59.283Z,0.00
2018-04-16T19:54:59.197Z,0.00
2018-04-16T19:55:59.105Z,0.00
2018-04-16T19:56:59.031Z,0.00
2018-04-16T19:57:58.954Z,0.00
2018-04-16T19:58:58.875Z,0.00
2018-04-16T19:59:58.800Z,0.00
2018-04-16T20:00:58.720Z,0.00
2018-04-16T20:01:58.645Z,0.00
2018-04-16T20:02:58.589Z,0.00
2018-04-16T20:03:58.488Z,0.00
2018-04-16T20:04:58.412Z,0.00
2018-04-16T20:05:58.343Z,0.00
2018-04-16T20:06:58.269Z,0.00
2018-04-16T20:07:58.200Z,0.00
2018-04-16T20:08:58.111Z,0.00
2018-04-16T20:09:58.028Z,0.00
2018-04-16T20:10:57.969Z,0.00
2018-04-16T20:11:57.871Z,0.00
2018-04-16T20:12:57.793Z,0.00
2018-04-16T20:13:57.717Z,0.00
2018-04-16T20:14:57.681Z,0.00
2018-04-16T20:15:57.569Z,0.00
2018-04-16T20:16:57.485Z,0.00
2018-04-16T20:17:57.411Z,0.00
2018-04-16T20:18:57.342Z,0.00
2018-04-16T20:19:57.258Z,0.00
2018-04-16T20:20:57.188Z,0.00
2018-04-16T20:21:57.100Z,0.00
2018-04-16T20:22:57.025Z,0.00
2018-04-16T20:23:56.948Z,0.00
2018-04-16T20:24:56.871Z,0.00
2018-04-16T20:25:56.797Z,0.00
2018-04-16T20:26:56.716Z,0.00
2018-04-16T20:27:56.638Z,0.00
2018-04-16T20:28:56.563Z,0.00
2018-04-16T20:29:56.495Z,0.00
2018-04-16T20:30:56.405Z,0.00
2018-04-16T20:31:56.334Z,0.00
2018-04-16T20:32:56.249Z,0.00
2018-04-16T20:33:56.175Z,0.00
2018-04-16T20:34:56.132Z,0.00
2018-04-16T20:35:56.018Z,0.00
2018-04-16T20:36:55.982Z,0.00
2018-04-16T20:37:55.869Z,0.00
2018-04-16T20:38:55.807Z,0.00
2018-04-16T20:39:55.717Z,0.00
2018-04-16T20:40:55.636Z,0.00
2018-04-16T20:41:55.555Z,0.00
2018-04-16T20:42:55.487Z,0.00
2018-04-16T20:43:55.402Z,0.00
2018-04-16T20:44:56.008Z,0.00
2018-04-16T20:45:55.247Z,0.00
2018-04-16T20:46:55.170Z,0.00
2018-04-16T20:47:55.096Z,0.00
2018-04-16T20:48:55.014Z,0.00
2018-04-16T20:49:54.937Z,0.00
2018-04-16T20:50:54.859Z,0.00
2018-04-16T20:51:54.783Z,0.00
2018-04-16T20:52:54.706Z,0.00
2018-04-16T20:53:54.647Z,0.00
2018-04-16T20:54:54.554Z,0.00
2018-04-16T20:55:54.472Z,0.00
2018-04-16T20:56:54.400Z,0.00
2018-04-16T20:57:54.323Z,0.00
2018-04-16T20:58:54.240Z,0.00
2018-04-16T20:59:54.162Z,0.00
2018-04-16T21:00:54.085Z,0.00
2018-04-16T21:01:54.009Z,0.00
2018-04-16T21:02:53.933Z,0.00
2018-04-16T21:03:53.853Z,0.00
2018-04-16T21:04:53.776Z,0.00
2018-04-16T21:05:53.713Z,0.00
2018-04-16T21:06:53.643Z,0.00
2018-04-16T21:07:53.559Z,0.00
2018-04-16T21:08:53.481Z,0.00
2018-04-16T21:09:53.403Z,0.00
2018-04-16T21:10:53.324Z,0.00
2018-04-16T21:11:53.268Z,0.00
2018-04-16T21:12:53.173Z,0.00
2018-04-16T21:13:53.098Z,0.00
2018-04-16T21:14:53.016Z,0.00
2018-04-16T21:15:52.943Z,0.00
2018-04-16T21:16:52.861Z,0.00
2018-04-16T21:17:52.785Z,0.00
2018-04-16T21:18:52.725Z,0.00
2018-04-16T21:19:52.628Z,0.00
2018-04-16T21:20:52.547Z,0.00
2018-04-16T21:21:52.474Z,0.00
2018-04-16T21:22:52.395Z,0.00
2018-04-16T21:23:52.320Z,0.00
2018-04-16T21:24:52.257Z,0.00
2018-04-16T21:25:52.161Z,0.00
2018-04-16T21:26:52.086Z,0.00
2018-04-16T21:27:52.021Z,0.00
2018-04-16T21:28:51.926Z,0.00
2018-04-16T21:29:51.855Z,0.00
2018-04-16T21:30:51.774Z,0.00
2018-04-16T21:31:51.696Z,0.00
2018-04-16T21:32:51.622Z,0.00
2018-04-16T21:33:51.559Z,0.00
2018-04-16T21:34:51.464Z,0.00
2018-04-16T21:35:51.386Z,0.00
2018-04-16T21:36:51.317Z,0.00
2018-04-16T21:37:51.232Z,0.00
2018-04-16T21:38:51.158Z,0.00
2018-04-16T21:39:51.074Z,0.00
2018-04-16T21:40:50.999Z,0.00
2018-04-16T21:41:50.921Z,0.00
2018-04-16T21:42:50.843Z,0.00
2018-04-16T21:43:50.775Z,0.00
2018-04-16T21:44:50.700Z,0.00
2018-04-16T21:45:50.609Z,0.00
2018-04-16T21:46:50.531Z,0.00
2018-04-16T21:47:50.461Z,0.00
2018-04-16T21:48:50.377Z,0.00
2018-04-16T21:49:50.298Z,0.00
2018-04-16T21:50:50.219Z,0.00
2018-04-16T21:51:50.144Z,0.00
2018-04-16T21:52:50.064Z,0.00
2018-04-16T21:53:49.989Z,0.00
2018-04-16T21:54:49.911Z,0.00
2018-04-16T21:55:49.853Z,0.00
2018-04-16T21:56:49.796Z,0.00
2018-04-16T21:57:49.687Z,0.00
2018-04-16T21:58:49.602Z,0.00
2018-04-16T21:59:49.525Z,0.00
2018-04-16T22:00:49.444Z,0.00
2018-04-16T22:01:49.368Z,0.00
2018-04-16T22:02:49.289Z,0.00
2018-04-16T22:03:49.218Z,0.00
2018-04-16T22:04:49.135Z,0.00
2018-04-16T22:05:49.071Z,0.00
2018-04-16T22:06:48.978Z,0.00
2018-04-16T22:07:48.901Z,0.00
2018-04-16T22:08:48.824Z,0.00
2018-04-16T22:09:48.748Z,0.00
2018-04-16T22:10:48.667Z,0.00
2018-04-16T22:11:48.592Z,0.00
2018-04-16T22:12:48.515Z,0.00
2018-04-16T22:13:48.436Z,0.00
2018-04-16T22:14:48.376Z,0.00
2018-04-16T22:15:48.290Z,0.00
2018-04-16T22:16:48.206Z,0.00
2018-04-16T22:17:48.141Z,0.00
2018-04-16T22:18:48.051Z,0.00
2018-04-16T22:19:47.973Z,0.00
2018-04-16T22:20:47.897Z,0.00
2018-04-16T22:21:47.817Z,0.00
2018-04-16T22:22:47.739Z,0.00
2018-04-16T22:23:47.664Z,0.00
2018-04-16T22:24:47.586Z,0.00
2018-04-16T22:25:47.519Z,0.00
2018-04-16T22:26:47.432Z,0.00
2018-04-16T22:27:47.352Z,0.00
2018-04-16T22:28:47.272Z,0.00
2018-04-16T22:29:47.200Z,0.00
2018-04-16T22:30:47.120Z,0.00
2018-04-16T22:31:47.048Z,0.00
2018-04-16T22:32:46.964Z,0.00
2018-04-16T22:33:46.887Z,0.00
2018-04-16T22:34:46.818Z,0.00
2018-04-16T22:35:46.733Z,0.00
2018-04-16T22:36:46.658Z,0.00
2018-04-16T22:37:46.579Z,0.00
2018-04-16T22:38:46.501Z,0.00
2018-04-16T22:39:46.422Z,0.00
2018-04-16T22:40:46.343Z,0.00
2018-04-16T22:41:46.267Z,0.00
2018-04-16T22:42:46.190Z,0.00
2018-04-16T22:43:46.112Z,0.00
2018-04-16T22:44:46.032Z,0.00
2018-04-16T22:45:45.955Z,0.00
2018-04-16T22:46:45.877Z,0.00
2018-04-16T22:47:45.802Z,0.00
2018-04-16T22:48:45.722Z,0.00
2018-04-16T22:49:45.648Z,0.00
2018-04-16T22:50:45.566Z,0.00
2018-04-16T22:51:45.488Z,0.00
2018-04-16T22:52:45.412Z,0.00
2018-04-16T22:53:45.336Z,0.00
2018-04-16T22:54:45.255Z,0.00
2018-04-16T22:55:45.178Z,0.00
2018-04-16T22:56:45.100Z,0.00
2018-04-16T22:57:45.031Z,0.00
2018-04-16T22:58:44.947Z,0.00
2018-04-16T22:59:44.893Z,0.00
2018-04-16T23:00:44.789Z,0.00
2018-04-16T23:01:44.714Z,0.00
2018-04-16T23:02:44.657Z,0.00
2018-04-16T23:03:44.555Z,0.00
2018-04-16T23:04:44.496Z,0.00
2018-04-16T23:05:44.402Z,0.00
2018-04-16T23:06:44.322Z,0.00
2018-04-16T23:07:44.250Z,0.00
2018-04-16T23:08:44.165Z,0.00
2018-04-16T23:09:44.089Z,0.00
2018-04-16T23:10:44.011Z,0.00
2018-04-16T23:11:43.933Z,0.00
2018-04-16T23:12:43.855Z,0.00
2018-04-16T23:13:43.779Z,0.00
2018-04-16T23:14:43.699Z,0.00
2018-04-16T23:15:43.640Z,0.00
2018-04-16T23:16:43.547Z,0.00
2018-04-16T23:17:43.464Z,0.00
2018-04-16T23:18:43.388Z,0.00
2018-04-16T23:19:43.320Z,0.00
2018-04-16T23:20:43.233Z,0.00
2018-04-16T23:21:43.157Z,0.00
2018-04-16T23:22:43.075Z,0.00
2018-04-16T23:23:42.998Z,0.00
2018-04-16T23:24:42.926Z,0.00
2018-04-16T23:25:42.844Z,0.00
2018-04-16T23:26:42.778Z,0.00
2018-04-16T23:27:42.686Z,0.00
2018-04-16T23:28:42.607Z,0.00
2018-04-16T23:29:42.531Z,0.00
2018-04-16T23:30:42.454Z,0.00
2018-04-16T23:31:42.395Z,0.00
2018-04-16T23:32:42.295Z,0.00
2018-04-16T23:33:42.219Z,0.00
2018-04-16T23:34:42.141Z,0.00
2018-04-16T23:35:42.062Z,0.00
2018-04-16T23:36:41.984Z,0.00
2018-04-16T23:37:41.911Z,0.00
2018-04-16T23:38:41.836Z,0.00
2018-04-16T23:39:41.752Z,0.00
2018-04-16T23:40:41.672Z,0.00
2018-04-16T23:41:41.596Z,0.00
2018-04-16T23:42:41.519Z,0.00
2018-04-16T23:43:41.440Z,0.00
2018-04-16T23:44:41.364Z,0.00
2018-04-16T23:45:41.285Z,0.00
2018-04-16T23:46:41.213Z,0.00
2018-04-16T23:47:41.129Z,0.00
2018-04-16T23:48:41.051Z,0.00
2018-04-16T23:49:40.975Z,0.00
2018-04-16T23:50:40.914Z,0.00
2018-04-16T23:51:40.819Z,0.00
2018-04-16T23:52:40.740Z,0.00
2018-04-16T23:53:40.661Z,0.00
2018-04-16T23:54:40.583Z,0.00
2018-04-16T23:55:40.512Z,0.00
2018-04-16T23:56:40.427Z,0.00
2018-04-16T23:57:40.364Z,0.00
2018-04-16T23:58:40.273Z,0.00
2018-04-16T23:59:40.197Z,0.00
